sensor_id;sensor_type;location;lat;lon;timestamp;temperature;humidity
14409;DHT22;7289;50.706;4.992;2024-01-30T00:01:56;8.50;99.90
14409;DHT22;7289;50.706;4.992;2024-01-30T00:04:24;8.50;99.90
14409;DHT22;7289;50.706;4.992;2024-01-30T00:06:53;8.50;99.90
14409;DHT22;7289;50.706;4.992;2024-01-30T00:09:21;8.50;99.90
14409;DHT22;7289;50.706;4.992;2024-01-30T00:11:50;8.40;99.90
14409;DHT22;7289;50.706;4.992;2024-01-30T00:14:18;8.30;99.90
14409;DHT22;7289;50.706;4.992;2024-01-30T00:16:47;8.20;99.90
14409;DHT22;7289;50.706;4.992;2024-01-30T00:19:17;8.20;99.90
14409;DHT22;7289;50.706;4.992;2024-01-30T00:21:46;8.10;99.90
14409;DHT22;7289;50.706;4.992;2024-01-30T00:24:15;8.10;99.90
14409;DHT22;7289;50.706;4.992;2024-01-30T00:26:43;8.10;99.90
14409;DHT22;7289;50.706;4.992;2024-01-30T00:29:11;8.10;99.90
14409;DHT22;7289;50.706;4.992;2024-01-30T00:31:46;8.10;99.90
14409;DHT22;7289;50.706;4.992;2024-01-30T00:34:14;8.10;99.90
14409;DHT22;7289;50.706;4.992;2024-01-30T00:36:44;8.20;99.90
14409;DHT22;7289;50.706;4.992;2024-01-30T00:39:13;8.20;99.90
14409;DHT22;7289;50.706;4.992;2024-01-30T00:41:42;8.20;99.90
14409;DHT22;7289;50.706;4.992;2024-01-30T00:44:11;8.30;99.90
14409;DHT22;7289;50.706;4.992;2024-01-30T00:46:40;8.30;99.90
14409;DHT22;7289;50.706;4.992;2024-01-30T00:49:08;8.40;99.90
14409;DHT22;7289;50.706;4.992;2024-01-30T00:51:37;8.30;99.90
14409;DHT22;7289;50.706;4.992;2024-01-30T00:54:06;8.30;99.90
14409;DHT22;7289;50.706;4.992;2024-01-30T00:56:35;8.30;99.90
14409;DHT22;7289;50.706;4.992;2024-01-30T00:59:03;8.40;99.90
14409;DHT22;7289;50.706;4.992;2024-01-30T01:01:32;8.40;99.90
14409;DHT22;7289;50.706;4.992;2024-01-30T01:04:00;8.40;99.90
14409;DHT22;7289;50.706;4.992;2024-01-30T01:06:29;8.50;99.90
14409;DHT22;7289;50.706;4.992;2024-01-30T01:08:58;8.60;99.90
14409;DHT22;7289;50.706;4.992;2024-01-30T01:11:30;8.60;99.90
14409;DHT22;7289;50.706;4.992;2024-01-30T01:13:59;8.70;99.90
14409;DHT22;7289;50.706;4.992;2024-01-30T01:16:28;8.70;99.90
14409;DHT22;7289;50.706;4.992;2024-01-30T01:18:56;8.70;99.90
14409;DHT22;7289;50.706;4.992;2024-01-30T01:21:25;8.70;99.90
14409;DHT22;7289;50.706;4.992;2024-01-30T01:23:53;8.80;99.90
14409;DHT22;7289;50.706;4.992;2024-01-30T01:26:22;8.90;99.90
14409;DHT22;7289;50.706;4.992;2024-01-30T01:28:51;9.00;99.90
14409;DHT22;7289;50.706;4.992;2024-01-30T01:31:20;9.00;99.90
14409;DHT22;7289;50.706;4.992;2024-01-30T01:33:52;9.10;99.90
14409;DHT22;7289;50.706;4.992;2024-01-30T01:36:20;9.10;99.90
14409;DHT22;7289;50.706;4.992;2024-01-30T01:38:49;9.20;99.90
14409;DHT22;7289;50.706;4.992;2024-01-30T01:41:18;9.20;99.90
14409;DHT22;7289;50.706;4.992;2024-01-30T01:43:46;9.30;99.90
14409;DHT22;7289;50.706;4.992;2024-01-30T01:46:17;9.40;99.90
14409;DHT22;7289;50.706;4.992;2024-01-30T01:48:45;9.30;99.90
14409;DHT22;7289;50.706;4.992;2024-01-30T01:51:15;9.30;99.90
14409;DHT22;7289;50.706;4.992;2024-01-30T01:53:44;9.30;99.90
14409;DHT22;7289;50.706;4.992;2024-01-30T01:56:13;9.30;99.90
14409;DHT22;7289;50.706;4.992;2024-01-30T01:58:41;9.30;99.90
14409;DHT22;7289;50.706;4.992;2024-01-30T02:01:11;9.30;99.90
14409;DHT22;7289;50.706;4.992;2024-01-30T02:03:43;9.20;99.90
14409;DHT22;7289;50.706;4.992;2024-01-30T02:06:12;9.20;99.90
14409;DHT22;7289;50.706;4.992;2024-01-30T02:08:41;9.20;99.90
14409;DHT22;7289;50.706;4.992;2024-01-30T02:11:10;9.20;99.90
14409;DHT22;7289;50.706;4.992;2024-01-30T02:13:38;9.20;99.90
14409;DHT22;7289;50.706;4.992;2024-01-30T02:16:07;9.20;99.90
14409;DHT22;7289;50.706;4.992;2024-01-30T02:18:35;9.20;99.90
14409;DHT22;7289;50.706;4.992;2024-01-30T02:21:18;9.20;99.90
14409;DHT22;7289;50.706;4.992;2024-01-30T02:23:47;9.20;99.90
14409;DHT22;7289;50.706;4.992;2024-01-30T02:26:16;9.20;99.90
14409;DHT22;7289;50.706;4.992;2024-01-30T02:28:45;9.20;99.90
14409;DHT22;7289;50.706;4.992;2024-01-30T02:31:13;9.20;99.90
14409;DHT22;7289;50.706;4.992;2024-01-30T02:33:42;9.10;99.90
14409;DHT22;7289;50.706;4.992;2024-01-30T02:36:10;9.10;99.90
14409;DHT22;7289;50.706;4.992;2024-01-30T02:38:40;9.20;99.90
14409;DHT22;7289;50.706;4.992;2024-01-30T02:41:08;9.10;99.90
14409;DHT22;7289;50.706;4.992;2024-01-30T02:43:36;9.20;99.90
14409;DHT22;7289;50.706;4.992;2024-01-30T02:46:05;9.30;99.90
14409;DHT22;7289;50.706;4.992;2024-01-30T02:48:33;9.40;99.90
14409;DHT22;7289;50.706;4.992;2024-01-30T02:51:02;9.40;99.90
14409;DHT22;7289;50.706;4.992;2024-01-30T02:53:30;9.50;99.90
14409;DHT22;7289;50.706;4.992;2024-01-30T02:56:00;9.50;99.90
14409;DHT22;7289;50.706;4.992;2024-01-30T02:58:29;9.60;99.90
14409;DHT22;7289;50.706;4.992;2024-01-30T03:00:57;9.50;99.90
14409;DHT22;7289;50.706;4.992;2024-01-30T03:03:26;9.50;99.90
14409;DHT22;7289;50.706;4.992;2024-01-30T03:05:54;9.50;99.90
14409;DHT22;7289;50.706;4.992;2024-01-30T03:08:23;9.50;99.90
14409;DHT22;7289;50.706;4.992;2024-01-30T03:10:51;9.50;99.90
14409;DHT22;7289;50.706;4.992;2024-01-30T03:13:21;9.50;99.90
14409;DHT22;7289;50.706;4.992;2024-01-30T03:15:52;9.50;99.90
14409;DHT22;7289;50.706;4.992;2024-01-30T03:18:20;9.40;99.90
14409;DHT22;7289;50.706;4.992;2024-01-30T03:20:49;9.40;99.90
14409;DHT22;7289;50.706;4.992;2024-01-30T03:23:17;9.50;99.90
14409;DHT22;7289;50.706;4.992;2024-01-30T03:25:46;9.60;99.90
14409;DHT22;7289;50.706;4.992;2024-01-30T03:28:14;9.60;99.90
14409;DHT22;7289;50.706;4.992;2024-01-30T03:30:44;9.60;99.90
14409;DHT22;7289;50.706;4.992;2024-01-30T03:33:13;9.60;99.90
14409;DHT22;7289;50.706;4.992;2024-01-30T03:35:42;9.60;99.90
14409;DHT22;7289;50.706;4.992;2024-01-30T03:38:11;9.60;99.90
14409;DHT22;7289;50.706;4.992;2024-01-30T03:40:39;9.60;99.90
14409;DHT22;7289;50.706;4.992;2024-01-30T03:43:08;9.50;99.90
14409;DHT22;7289;50.706;4.992;2024-01-30T03:45:36;9.50;99.90
14409;DHT22;7289;50.706;4.992;2024-01-30T03:48:07;9.60;99.90
14409;DHT22;7289;50.706;4.992;2024-01-30T03:50:36;9.50;99.90
14409;DHT22;7289;50.706;4.992;2024-01-30T03:53:04;9.50;99.90
14409;DHT22;7289;50.706;4.992;2024-01-30T03:55:33;9.50;99.90
14409;DHT22;7289;50.706;4.992;2024-01-30T03:58:02;9.50;99.90
14409;DHT22;7289;50.706;4.992;2024-01-30T04:00:30;9.50;99.90
14409;DHT22;7289;50.706;4.992;2024-01-30T04:02:59;9.60;99.90
14409;DHT22;7289;50.706;4.992;2024-01-30T04:05:28;9.60;99.90
14409;DHT22;7289;50.706;4.992;2024-01-30T04:07:57;9.60;99.90
14409;DHT22;7289;50.706;4.992;2024-01-30T04:10:26;9.70;99.90
14409;DHT22;7289;50.706;4.992;2024-01-30T04:12:54;9.70;99.90
14409;DHT22;7289;50.706;4.992;2024-01-30T04:15:22;9.70;99.90
14409;DHT22;7289;50.706;4.992;2024-01-30T04:17:51;9.70;99.90
14409;DHT22;7289;50.706;4.992;2024-01-30T04:20:20;9.70;99.90
14409;DHT22;7289;50.706;4.992;2024-01-30T04:22:49;9.70;99.90
14409;DHT22;7289;50.706;4.992;2024-01-30T04:25:18;9.70;99.90
14409;DHT22;7289;50.706;4.992;2024-01-30T04:27:46;9.70;99.90
14409;DHT22;7289;50.706;4.992;2024-01-30T04:30:15;9.70;99.90
14409;DHT22;7289;50.706;4.992;2024-01-30T04:32:43;9.70;99.90
14409;DHT22;7289;50.706;4.992;2024-01-30T04:35:12;9.80;99.90
14409;DHT22;7289;50.706;4.992;2024-01-30T04:37:41;9.80;99.90
14409;DHT22;7289;50.706;4.992;2024-01-30T04:40:11;9.80;99.90
14409;DHT22;7289;50.706;4.992;2024-01-30T04:42:40;9.80;99.90
14409;DHT22;7289;50.706;4.992;2024-01-30T04:45:09;9.90;99.90
14409;DHT22;7289;50.706;4.992;2024-01-30T04:47:37;9.90;99.90
14409;DHT22;7289;50.706;4.992;2024-01-30T04:50:07;9.90;99.90
14409;DHT22;7289;50.706;4.992;2024-01-30T04:52:36;10.10;99.90
14409;DHT22;7289;50.706;4.992;2024-01-30T04:55:05;10.10;99.90
14409;DHT22;7289;50.706;4.992;2024-01-30T04:57:36;10.10;99.90
14409;DHT22;7289;50.706;4.992;2024-01-30T05:00:05;10.10;99.90
14409;DHT22;7289;50.706;4.992;2024-01-30T05:02:33;10.20;99.90
14409;DHT22;7289;50.706;4.992;2024-01-30T05:05:02;10.30;99.90
14409;DHT22;7289;50.706;4.992;2024-01-30T05:07:31;10.30;99.90
14409;DHT22;7289;50.706;4.992;2024-01-30T05:10:00;10.30;99.90
14409;DHT22;7289;50.706;4.992;2024-01-30T05:12:31;10.40;99.90
14409;DHT22;7289;50.706;4.992;2024-01-30T05:15:01;10.20;99.90
14409;DHT22;7289;50.706;4.992;2024-01-30T05:17:30;10.30;99.90
14409;DHT22;7289;50.706;4.992;2024-01-30T05:19:59;10.30;99.90
14409;DHT22;7289;50.706;4.992;2024-01-30T05:22:27;10.30;99.90
14409;DHT22;7289;50.706;4.992;2024-01-30T05:24:56;10.30;99.90
14409;DHT22;7289;50.706;4.992;2024-01-30T05:27:24;10.30;99.90
14409;DHT22;7289;50.706;4.992;2024-01-30T05:29:53;10.30;99.90
14409;DHT22;7289;50.706;4.992;2024-01-30T05:32:22;10.30;99.90
14409;DHT22;7289;50.706;4.992;2024-01-30T05:34:51;10.30;99.90
14409;DHT22;7289;50.706;4.992;2024-01-30T05:37:19;10.30;99.90
14409;DHT22;7289;50.706;4.992;2024-01-30T05:39:48;10.30;99.90
14409;DHT22;7289;50.706;4.992;2024-01-30T05:42:16;10.30;99.90
14409;DHT22;7289;50.706;4.992;2024-01-30T05:44:45;10.30;99.90
14409;DHT22;7289;50.706;4.992;2024-01-30T05:47:13;10.40;99.90
14409;DHT22;7289;50.706;4.992;2024-01-30T05:49:44;10.30;99.90
14409;DHT22;7289;50.706;4.992;2024-01-30T05:52:12;10.40;99.90
14409;DHT22;7289;50.706;4.992;2024-01-30T05:54:42;10.40;99.90
14409;DHT22;7289;50.706;4.992;2024-01-30T05:57:11;10.50;99.90
14409;DHT22;7289;50.706;4.992;2024-01-30T05:59:39;10.50;99.90
14409;DHT22;7289;50.706;4.992;2024-01-30T06:02:08;10.60;99.90
14409;DHT22;7289;50.706;4.992;2024-01-30T06:04:36;10.60;99.90
14409;DHT22;7289;50.706;4.992;2024-01-30T06:07:07;10.50;99.90
14409;DHT22;7289;50.706;4.992;2024-01-30T06:09:35;10.60;99.90
14409;DHT22;7289;50.706;4.992;2024-01-30T06:12:04;10.50;99.90
14409;DHT22;7289;50.706;4.992;2024-01-30T06:14:33;10.50;99.90
14409;DHT22;7289;50.706;4.992;2024-01-30T06:17:01;10.50;99.90
14409;DHT22;7289;50.706;4.992;2024-01-30T06:19:30;10.50;99.90
14409;DHT22;7289;50.706;4.992;2024-01-30T06:21:58;10.50;99.90
14409;DHT22;7289;50.706;4.992;2024-01-30T06:24:31;10.50;99.90
14409;DHT22;7289;50.706;4.992;2024-01-30T06:27:00;10.60;99.90
14409;DHT22;7289;50.706;4.992;2024-01-30T06:29:29;10.50;99.90
14409;DHT22;7289;50.706;4.992;2024-01-30T06:31:57;10.50;99.90
14409;DHT22;7289;50.706;4.992;2024-01-30T06:34:26;10.60;99.90
14409;DHT22;7289;50.706;4.992;2024-01-30T06:36:54;10.60;99.90
14409;DHT22;7289;50.706;4.992;2024-01-30T06:39:23;10.60;99.90
14409;DHT22;7289;50.706;4.992;2024-01-30T06:41:53;10.60;99.90
14409;DHT22;7289;50.706;4.992;2024-01-30T06:44:22;10.70;99.90
14409;DHT22;7289;50.706;4.992;2024-01-30T06:46:50;10.70;99.90
14409;DHT22;7289;50.706;4.992;2024-01-30T06:49:18;10.70;99.90
14409;DHT22;7289;50.706;4.992;2024-01-30T06:51:49;10.80;99.90
14409;DHT22;7289;50.706;4.992;2024-01-30T06:54:17;10.80;99.90
14409;DHT22;7289;50.706;4.992;2024-01-30T06:56:46;10.80;99.90
14409;DHT22;7289;50.706;4.992;2024-01-30T06:59:15;10.80;99.90
14409;DHT22;7289;50.706;4.992;2024-01-30T07:01:44;10.90;99.90
14409;DHT22;7289;50.706;4.992;2024-01-30T07:04:13;10.80;99.90
14409;DHT22;7289;50.706;4.992;2024-01-30T07:06:41;10.70;99.90
14409;DHT22;7289;50.706;4.992;2024-01-30T07:09:10;10.60;99.90
14409;DHT22;7289;50.706;4.992;2024-01-30T07:11:39;10.60;99.90
14409;DHT22;7289;50.706;4.992;2024-01-30T07:14:08;10.50;99.90
14409;DHT22;7289;50.706;4.992;2024-01-30T07:16:38;10.60;99.90
14409;DHT22;7289;50.706;4.992;2024-01-30T07:19:09;10.60;99.90
14409;DHT22;7289;50.706;4.992;2024-01-30T07:21:37;10.60;99.90
14409;DHT22;7289;50.706;4.992;2024-01-30T07:24:07;10.70;99.90
14409;DHT22;7289;50.706;4.992;2024-01-30T07:26:36;10.70;99.90
14409;DHT22;7289;50.706;4.992;2024-01-30T07:29:04;10.70;99.90
14409;DHT22;7289;50.706;4.992;2024-01-30T07:31:33;10.60;99.90
14409;DHT22;7289;50.706;4.992;2024-01-30T07:34:02;10.60;99.90
14409;DHT22;7289;50.706;4.992;2024-01-30T07:36:32;10.60;99.90
14409;DHT22;7289;50.706;4.992;2024-01-30T07:39:00;10.60;99.90
14409;DHT22;7289;50.706;4.992;2024-01-30T07:41:29;10.60;99.90
14409;DHT22;7289;50.706;4.992;2024-01-30T07:43:57;10.70;99.90
14409;DHT22;7289;50.706;4.992;2024-01-30T07:46:26;10.70;99.90
14409;DHT22;7289;50.706;4.992;2024-01-30T07:48:54;10.70;99.90
14409;DHT22;7289;50.706;4.992;2024-01-30T07:51:25;10.70;99.90
14409;DHT22;7289;50.706;4.992;2024-01-30T07:53:58;10.70;99.90
14409;DHT22;7289;50.706;4.992;2024-01-30T07:56:26;10.70;99.90
14409;DHT22;7289;50.706;4.992;2024-01-30T07:58:55;10.70;99.90
14409;DHT22;7289;50.706;4.992;2024-01-30T08:01:23;10.70;99.90
14409;DHT22;7289;50.706;4.992;2024-01-30T08:03:52;10.70;99.90
14409;DHT22;7289;50.706;4.992;2024-01-30T08:06:21;10.80;99.90
14409;DHT22;7289;50.706;4.992;2024-01-30T08:08:50;10.80;99.90
14409;DHT22;7289;50.706;4.992;2024-01-30T08:11:21;10.80;99.90
14409;DHT22;7289;50.706;4.992;2024-01-30T08:13:52;10.80;99.90
14409;DHT22;7289;50.706;4.992;2024-01-30T08:16:21;10.80;99.90
14409;DHT22;7289;50.706;4.992;2024-01-30T08:18:50;10.80;99.90
14409;DHT22;7289;50.706;4.992;2024-01-30T08:21:20;10.70;99.90
14409;DHT22;7289;50.706;4.992;2024-01-30T08:23:50;10.80;99.90
14409;DHT22;7289;50.706;4.992;2024-01-30T08:26:18;10.90;99.90
14409;DHT22;7289;50.706;4.992;2024-01-30T08:28:47;11.00;99.90
14409;DHT22;7289;50.706;4.992;2024-01-30T08:31:15;11.10;99.90
14409;DHT22;7289;50.706;4.992;2024-01-30T08:33:44;11.30;99.90
14409;DHT22;7289;50.706;4.992;2024-01-30T08:36:16;11.40;99.90
14409;DHT22;7289;50.706;4.992;2024-01-30T08:38:46;11.50;99.90
14409;DHT22;7289;50.706;4.992;2024-01-30T08:41:16;11.60;99.90
14409;DHT22;7289;50.706;4.992;2024-01-30T08:43:47;11.70;99.90
14409;DHT22;7289;50.706;4.992;2024-01-30T08:46:17;11.80;99.90
14409;DHT22;7289;50.706;4.992;2024-01-30T08:48:47;11.80;99.90
14409;DHT22;7289;50.706;4.992;2024-01-30T08:51:16;11.90;99.90
14409;DHT22;7289;50.706;4.992;2024-01-30T08:53:44;11.90;99.90
14409;DHT22;7289;50.706;4.992;2024-01-30T08:56:13;11.90;99.90
14409;DHT22;7289;50.706;4.992;2024-01-30T08:58:46;12.00;99.90
14409;DHT22;7289;50.706;4.992;2024-01-30T09:01:15;12.00;99.90
14409;DHT22;7289;50.706;4.992;2024-01-30T09:03:44;12.00;99.90
14409;DHT22;7289;50.706;4.992;2024-01-30T09:06:14;12.00;99.90
14409;DHT22;7289;50.706;4.992;2024-01-30T09:08:43;11.90;99.90
14409;DHT22;7289;50.706;4.992;2024-01-30T09:11:13;11.90;99.90
14409;DHT22;7289;50.706;4.992;2024-01-30T09:13:41;12.00;99.90
14409;DHT22;7289;50.706;4.992;2024-01-30T09:16:12;11.90;99.90
14409;DHT22;7289;50.706;4.992;2024-01-30T09:18:41;12.00;99.90
14409;DHT22;7289;50.706;4.992;2024-01-30T09:21:10;12.10;99.90
14409;DHT22;7289;50.706;4.992;2024-01-30T09:23:38;12.10;99.90
14409;DHT22;7289;50.706;4.992;2024-01-30T09:26:07;12.30;99.90
14409;DHT22;7289;50.706;4.992;2024-01-30T09:28:35;12.40;99.90
14409;DHT22;7289;50.706;4.992;2024-01-30T09:31:04;12.60;99.90
14409;DHT22;7289;50.706;4.992;2024-01-30T09:33:39;12.70;99.90
14409;DHT22;7289;50.706;4.992;2024-01-30T09:36:09;13.00;99.90
14409;DHT22;7289;50.706;4.992;2024-01-30T09:38:37;13.20;99.90
14409;DHT22;7289;50.706;4.992;2024-01-30T09:41:09;13.40;99.90
14409;DHT22;7289;50.706;4.992;2024-01-30T09:43:39;13.50;99.90
14409;DHT22;7289;50.706;4.992;2024-01-30T09:46:12;13.60;99.90
14409;DHT22;7289;50.706;4.992;2024-01-30T09:48:42;13.70;99.90
14409;DHT22;7289;50.706;4.992;2024-01-30T09:51:11;13.50;99.90
14409;DHT22;7289;50.706;4.992;2024-01-30T09:53:42;13.40;99.90
14409;DHT22;7289;50.706;4.992;2024-01-30T09:56:12;13.50;99.90
14409;DHT22;7289;50.706;4.992;2024-01-30T09:58:42;13.40;99.90
14409;DHT22;7289;50.706;4.992;2024-01-30T10:01:11;13.40;99.90
14409;DHT22;7289;50.706;4.992;2024-01-30T10:03:39;13.40;99.90
14409;DHT22;7289;50.706;4.992;2024-01-30T10:06:10;13.40;99.90
14409;DHT22;7289;50.706;4.992;2024-01-30T10:08:39;13.30;99.90
14409;DHT22;7289;50.706;4.992;2024-01-30T10:11:07;13.30;99.90
14409;DHT22;7289;50.706;4.992;2024-01-30T10:13:39;13.30;99.90
14409;DHT22;7289;50.706;4.992;2024-01-30T10:16:07;13.40;99.90
14409;DHT22;7289;50.706;4.992;2024-01-30T10:18:36;13.40;99.90
14409;DHT22;7289;50.706;4.992;2024-01-30T10:21:09;13.50;99.90
14409;DHT22;7289;50.706;4.992;2024-01-30T10:23:38;13.60;99.90
14409;DHT22;7289;50.706;4.992;2024-01-30T10:26:07;13.60;99.90
14409;DHT22;7289;50.706;4.992;2024-01-30T10:28:36;13.70;99.90
14409;DHT22;7289;50.706;4.992;2024-01-30T10:31:05;13.70;99.90
14409;DHT22;7289;50.706;4.992;2024-01-30T10:33:34;13.70;99.90
14409;DHT22;7289;50.706;4.992;2024-01-30T10:36:04;13.60;99.90
14409;DHT22;7289;50.706;4.992;2024-01-30T10:38:35;13.60;99.90
14409;DHT22;7289;50.706;4.992;2024-01-30T10:41:04;13.60;99.90
14409;DHT22;7289;50.706;4.992;2024-01-30T10:43:35;13.60;99.90
14409;DHT22;7289;50.706;4.992;2024-01-30T10:46:09;13.50;99.90
14409;DHT22;7289;50.706;4.992;2024-01-30T10:48:43;13.50;99.90
14409;DHT22;7289;50.706;4.992;2024-01-30T10:51:13;13.50;99.90
14409;DHT22;7289;50.706;4.992;2024-01-30T10:53:46;13.40;99.90
14409;DHT22;7289;50.706;4.992;2024-01-30T10:56:16;13.40;99.90
14409;DHT22;7289;50.706;4.992;2024-01-30T10:58:45;13.40;99.90
14409;DHT22;7289;50.706;4.992;2024-01-30T11:01:14;13.30;99.90
14409;DHT22;7289;50.706;4.992;2024-01-30T11:03:43;13.30;99.90
14409;DHT22;7289;50.706;4.992;2024-01-30T11:06:12;13.20;99.90
14409;DHT22;7289;50.706;4.992;2024-01-30T11:08:46;13.20;99.90
14409;DHT22;7289;50.706;4.992;2024-01-30T11:11:28;13.30;99.90
14409;DHT22;7289;50.706;4.992;2024-01-30T11:14:00;13.30;99.90
14409;DHT22;7289;50.706;4.992;2024-01-30T11:16:32;13.30;99.90
14409;DHT22;7289;50.706;4.992;2024-01-30T11:19:01;13.30;99.90
14409;DHT22;7289;50.706;4.992;2024-01-30T11:21:30;13.10;99.90
14409;DHT22;7289;50.706;4.992;2024-01-30T11:23:59;13.20;99.90
14409;DHT22;7289;50.706;4.992;2024-01-30T11:26:31;13.10;99.90
14409;DHT22;7289;50.706;4.992;2024-01-30T11:29:03;13.10;99.90
14409;DHT22;7289;50.706;4.992;2024-01-30T11:31:32;13.10;99.90
14409;DHT22;7289;50.706;4.992;2024-01-30T11:34:01;13.10;99.90
14409;DHT22;7289;50.706;4.992;2024-01-30T11:36:32;13.10;99.90
14409;DHT22;7289;50.706;4.992;2024-01-30T11:39:06;13.00;99.90
14409;DHT22;7289;50.706;4.992;2024-01-30T11:41:37;13.00;99.90
14409;DHT22;7289;50.706;4.992;2024-01-30T11:44:06;13.00;99.90
14409;DHT22;7289;50.706;4.992;2024-01-30T11:46:36;13.10;99.90
14409;DHT22;7289;50.706;4.992;2024-01-30T11:49:05;13.10;99.90
14409;DHT22;7289;50.706;4.992;2024-01-30T11:51:33;13.10;99.90
14409;DHT22;7289;50.706;4.992;2024-01-30T11:54:02;13.00;99.90
14409;DHT22;7289;50.706;4.992;2024-01-30T11:56:32;13.00;99.90
14409;DHT22;7289;50.706;4.992;2024-01-30T11:59:01;13.10;99.90
14409;DHT22;7289;50.706;4.992;2024-01-30T12:01:30;13.30;99.90
14409;DHT22;7289;50.706;4.992;2024-01-30T12:04:00;13.40;99.90
14409;DHT22;7289;50.706;4.992;2024-01-30T12:06:28;13.40;99.90
14409;DHT22;7289;50.706;4.992;2024-01-30T12:08:59;13.50;99.90
14409;DHT22;7289;50.706;4.992;2024-01-30T12:11:28;13.60;99.90
14409;DHT22;7289;50.706;4.992;2024-01-30T12:13:59;13.50;99.90
14409;DHT22;7289;50.706;4.992;2024-01-30T12:16:27;13.30;99.90
14409;DHT22;7289;50.706;4.992;2024-01-30T12:19:00;13.20;99.90
14409;DHT22;7289;50.706;4.992;2024-01-30T12:21:29;13.10;99.90
14409;DHT22;7289;50.706;4.992;2024-01-30T12:23:59;13.20;99.90
14409;DHT22;7289;50.706;4.992;2024-01-30T12:26:28;13.10;99.90
14409;DHT22;7289;50.706;4.992;2024-01-30T12:28:58;13.10;99.90
14409;DHT22;7289;50.706;4.992;2024-01-30T12:31:28;13.20;99.90
14409;DHT22;7289;50.706;4.992;2024-01-30T12:33:59;13.20;99.90
14409;DHT22;7289;50.706;4.992;2024-01-30T12:36:29;13.30;99.90
14409;DHT22;7289;50.706;4.992;2024-01-30T12:38:58;13.20;99.90
14409;DHT22;7289;50.706;4.992;2024-01-30T12:41:27;13.20;99.90
14409;DHT22;7289;50.706;4.992;2024-01-30T12:43:58;13.30;99.90
14409;DHT22;7289;50.706;4.992;2024-01-30T12:46:28;13.40;99.90
14409;DHT22;7289;50.706;4.992;2024-01-30T12:48:57;13.30;99.90
14409;DHT22;7289;50.706;4.992;2024-01-30T12:51:25;13.30;99.90
14409;DHT22;7289;50.706;4.992;2024-01-30T12:53:54;13.30;99.90
14409;DHT22;7289;50.706;4.992;2024-01-30T12:56:23;13.20;99.90
14409;DHT22;7289;50.706;4.992;2024-01-30T12:58:51;13.30;99.90
14409;DHT22;7289;50.706;4.992;2024-01-30T13:01:23;13.20;99.90
14409;DHT22;7289;50.706;4.992;2024-01-30T13:03:53;13.20;99.90
14409;DHT22;7289;50.706;4.992;2024-01-30T13:06:24;13.30;99.90
14409;DHT22;7289;50.706;4.992;2024-01-30T13:08:53;13.20;99.90
14409;DHT22;7289;50.706;4.992;2024-01-30T13:11:23;13.20;99.90
14409;DHT22;7289;50.706;4.992;2024-01-30T13:13:53;13.30;99.90
14409;DHT22;7289;50.706;4.992;2024-01-30T13:16:23;13.40;99.90
14409;DHT22;7289;50.706;4.992;2024-01-30T13:18:51;13.50;99.90
14409;DHT22;7289;50.706;4.992;2024-01-30T13:21:22;13.50;99.90
14409;DHT22;7289;50.706;4.992;2024-01-30T13:23:51;13.50;99.90
14409;DHT22;7289;50.706;4.992;2024-01-30T13:26:21;13.20;99.90
14409;DHT22;7289;50.706;4.992;2024-01-30T13:28:50;13.10;99.90
14409;DHT22;7289;50.706;4.992;2024-01-30T13:31:19;12.90;99.90
14409;DHT22;7289;50.706;4.992;2024-01-30T13:33:49;12.80;99.90
14409;DHT22;7289;50.706;4.992;2024-01-30T13:36:18;12.60;99.90
14409;DHT22;7289;50.706;4.992;2024-01-30T13:38:47;12.50;99.90
14409;DHT22;7289;50.706;4.992;2024-01-30T13:41:15;12.50;99.90
14409;DHT22;7289;50.706;4.992;2024-01-30T13:43:44;12.50;99.90
14409;DHT22;7289;50.706;4.992;2024-01-30T13:46:13;12.60;99.90
14409;DHT22;7289;50.706;4.992;2024-01-30T13:48:43;12.60;99.90
14409;DHT22;7289;50.706;4.992;2024-01-30T13:51:12;12.50;99.90
14409;DHT22;7289;50.706;4.992;2024-01-30T13:53:42;12.50;99.90
14409;DHT22;7289;50.706;4.992;2024-01-30T13:56:11;12.40;99.90
14409;DHT22;7289;50.706;4.992;2024-01-30T13:58:42;12.40;99.90
14409;DHT22;7289;50.706;4.992;2024-01-30T14:01:10;12.60;99.90
14409;DHT22;7289;50.706;4.992;2024-01-30T14:03:39;12.70;99.90
14409;DHT22;7289;50.706;4.992;2024-01-30T14:06:08;12.60;99.90
14409;DHT22;7289;50.706;4.992;2024-01-30T14:08:38;12.60;99.90
14409;DHT22;7289;50.706;4.992;2024-01-30T14:11:11;12.70;99.90
14409;DHT22;7289;50.706;4.992;2024-01-30T14:13:39;12.70;99.90
14409;DHT22;7289;50.706;4.992;2024-01-30T14:16:08;12.70;99.30
14409;DHT22;7289;50.706;4.992;2024-01-30T14:18:36;12.60;99.10
14409;DHT22;7289;50.706;4.992;2024-01-30T14:21:05;12.60;99.30
14409;DHT22;7289;50.706;4.992;2024-01-30T14:23:34;12.40;99.50
14409;DHT22;7289;50.706;4.992;2024-01-30T14:26:04;12.30;99.80
14409;DHT22;7289;50.706;4.992;2024-01-30T14:28:33;12.20;99.70
14409;DHT22;7289;50.706;4.992;2024-01-30T14:31:02;12.10;99.80
14409;DHT22;7289;50.706;4.992;2024-01-30T14:33:30;12.20;99.20
14409;DHT22;7289;50.706;4.992;2024-01-30T14:35:59;12.10;99.30
14409;DHT22;7289;50.706;4.992;2024-01-30T14:38:28;12.10;99.50
14409;DHT22;7289;50.706;4.992;2024-01-30T14:40:57;12.00;99.40
14409;DHT22;7289;50.706;4.992;2024-01-30T14:43:27;11.90;99.30
14409;DHT22;7289;50.706;4.992;2024-01-30T14:45:56;11.90;99.40
14409;DHT22;7289;50.706;4.992;2024-01-30T14:48:25;11.80;99.10
14409;DHT22;7289;50.706;4.992;2024-01-30T14:50:54;11.70;99.50
14409;DHT22;7289;50.706;4.992;2024-01-30T14:53:22;11.70;99.80
14409;DHT22;7289;50.706;4.992;2024-01-30T14:55:51;11.60;99.70
14409;DHT22;7289;50.706;4.992;2024-01-30T14:58:20;11.40;99.80
14409;DHT22;7289;50.706;4.992;2024-01-30T15:00:49;11.30;99.90
14409;DHT22;7289;50.706;4.992;2024-01-30T15:03:19;11.30;99.90
14409;DHT22;7289;50.706;4.992;2024-01-30T15:05:48;11.30;99.70
14409;DHT22;7289;50.706;4.992;2024-01-30T15:08:17;11.40;99.90
14409;DHT22;7289;50.706;4.992;2024-01-30T15:10:46;11.50;99.40
14409;DHT22;7289;50.706;4.992;2024-01-30T15:13:16;11.60;99.20
14409;DHT22;7289;50.706;4.992;2024-01-30T15:15:44;11.60;99.20
14409;DHT22;7289;50.706;4.992;2024-01-30T15:18:14;11.60;99.20
14409;DHT22;7289;50.706;4.992;2024-01-30T15:20:43;11.70;98.70
14409;DHT22;7289;50.706;4.992;2024-01-30T15:23:12;11.60;98.90
14409;DHT22;7289;50.706;4.992;2024-01-30T15:25:41;11.60;98.70
14409;DHT22;7289;50.706;4.992;2024-01-30T15:28:11;11.60;98.70
14409;DHT22;7289;50.706;4.992;2024-01-30T15:30:41;11.50;98.40
14409;DHT22;7289;50.706;4.992;2024-01-30T15:33:10;11.50;98.20
14409;DHT22;7289;50.706;4.992;2024-01-30T15:35:40;11.40;98.40
14409;DHT22;7289;50.706;4.992;2024-01-30T15:38:09;11.30;98.60
14409;DHT22;7289;50.706;4.992;2024-01-30T15:40:38;11.20;98.70
14409;DHT22;7289;50.706;4.992;2024-01-30T15:43:08;11.10;99.10
14409;DHT22;7289;50.706;4.992;2024-01-30T15:45:37;11.00;99.40
14409;DHT22;7289;50.706;4.992;2024-01-30T15:48:06;11.00;99.40
14409;DHT22;7289;50.706;4.992;2024-01-30T15:50:34;11.00;99.70
14409;DHT22;7289;50.706;4.992;2024-01-30T15:53:04;11.00;99.80
14409;DHT22;7289;50.706;4.992;2024-01-30T15:55:33;11.00;99.70
14409;DHT22;7289;50.706;4.992;2024-01-30T15:58:03;10.90;99.50
14409;DHT22;7289;50.706;4.992;2024-01-30T16:00:33;10.80;98.80
14409;DHT22;7289;50.706;4.992;2024-01-30T16:03:01;10.70;98.80